createdAt,value
2023-04-09T00:02:28.437Z,67.87
2023-04-09T00:04:57.334Z,67.29
2023-04-09T00:07:26.280Z,67.04
2023-04-09T00:09:55.274Z,67.72
2023-04-09T00:12:24.084Z,67.87
2023-04-09T00:14:53.004Z,67.99
2023-04-09T00:17:21.894Z,68.34
2023-04-09T00:19:50.587Z,68.23
2023-04-09T00:22:19.445Z,68.41
2023-04-09T00:24:48.188Z,68.52
2023-04-09T00:27:16.971Z,68.56
2023-04-09T00:29:45.708Z,68.64
2023-04-09T00:32:14.596Z,68.60
2023-04-09T00:34:43.666Z,68.74
2023-04-09T00:37:13.269Z,68.91
2023-04-09T00:39:42.297Z,68.74
2023-04-09T00:42:11.128Z,68.80
2023-04-09T00:44:40.435Z,68.73
2023-04-09T00:47:09.143Z,68.65
2023-04-09T00:49:37.854Z,68.40
2023-04-09T00:52:07.622Z,68.51
2023-04-09T00:54:36.538Z,69.03
2023-04-09T00:57:05.601Z,68.48
2023-04-09T00:59:34.555Z,68.76
2023-04-09T01:02:03.366Z,68.83
2023-04-09T01:04:32.844Z,69.14
2023-04-09T01:07:17.072Z,69.42
2023-04-09T01:09:54.227Z,69.51
2023-04-09T01:12:32.799Z,69.55
2023-04-09T01:15:07.037Z,69.51
2023-04-09T01:17:41.867Z,69.56
2023-04-09T01:20:18.880Z,69.18
2023-04-09T01:23:01.616Z,69.29
2023-04-09T01:25:45.720Z,69.58
2023-04-09T01:28:19.739Z,69.36
2023-04-09T01:30:52.925Z,69.00
2023-04-09T01:33:23.000Z,69.18
2023-04-09T01:35:52.588Z,69.53
2023-04-09T01:38:22.981Z,69.90
2023-04-09T01:40:53.402Z,69.87
2023-04-09T01:43:24.247Z,69.51
2023-04-09T01:45:53.954Z,69.28
2023-04-09T01:48:24.019Z,69.24
2023-04-09T01:50:54.172Z,69.29
2023-04-09T01:53:23.605Z,69.23
2023-04-09T01:55:52.252Z,68.83
2023-04-09T01:58:21.553Z,68.72
2023-04-09T02:00:52.113Z,68.71
2023-04-09T02:03:25.617Z,69.01
2023-04-09T02:06:00.312Z,69.72
2023-04-09T02:08:30.885Z,69.16
2023-04-09T02:11:04.412Z,69.12
2023-04-09T02:13:35.239Z,68.99
2023-04-09T02:16:05.705Z,69.32
2023-04-09T02:18:34.562Z,69.47
2023-04-09T02:21:05.239Z,69.55
2023-04-09T02:23:34.680Z,69.60
2023-04-09T02:26:03.710Z,69.55
2023-04-09T02:28:32.773Z,69.42
2023-04-09T02:31:02.404Z,69.67
2023-04-09T02:33:32.562Z,69.93
2023-04-09T02:36:01.348Z,70.16
2023-04-09T02:38:30.867Z,69.68
2023-04-09T02:41:00.559Z,70.04
2023-04-09T02:43:29.488Z,70.12
2023-04-09T02:45:58.887Z,69.81
2023-04-09T02:48:27.814Z,69.79
2023-04-09T02:50:56.761Z,69.96
2023-04-09T02:53:25.559Z,69.77
2023-04-09T02:55:54.765Z,69.68
2023-04-09T02:58:23.424Z,69.36
2023-04-09T03:00:52.179Z,69.43
2023-04-09T03:03:21.117Z,69.83
2023-04-09T03:05:50.266Z,70.14
2023-04-09T03:08:19.419Z,70.08
2023-04-09T03:10:48.307Z,70.32
2023-04-09T03:13:17.561Z,70.57
2023-04-09T03:15:46.480Z,70.13
2023-04-09T03:18:15.677Z,70.25
2023-04-09T03:20:44.800Z,69.93
2023-04-09T03:23:13.828Z,70.02
2023-04-09T03:25:51.339Z,70.25
2023-04-09T03:28:30.634Z,70.36
2023-04-09T03:31:10.075Z,70.16
2023-04-09T03:33:49.193Z,70.08
2023-04-09T03:36:18.340Z,70.31
2023-04-09T03:38:47.173Z,70.56
2023-04-09T03:41:16.407Z,70.51
2023-04-09T03:43:45.277Z,70.18
2023-04-09T03:46:14.669Z,70.12
2023-04-09T03:48:45.072Z,70.34
2023-04-09T03:51:14.561Z,70.69
2023-04-09T03:53:44.254Z,70.47
2023-04-09T03:56:13.067Z,70.22
2023-04-09T03:58:42.177Z,70.16
2023-04-09T04:01:11.548Z,70.02
2023-04-09T04:03:40.362Z,70.11
2023-04-09T04:06:09.620Z,70.13
2023-04-09T04:08:38.535Z,70.35
2023-04-09T04:11:07.906Z,71.07
2023-04-09T04:13:36.963Z,70.85
2023-04-09T04:16:10.148Z,70.79
2023-04-09T04:18:39.136Z,70.89
2023-04-09T04:21:14.839Z,71.14
2023-04-09T04:23:44.035Z,71.31
2023-04-09T04:26:13.336Z,70.99
2023-04-09T04:28:42.435Z,71.46
2023-04-09T04:31:12.538Z,71.49
2023-04-09T04:33:42.917Z,71.05
2023-04-09T04:36:13.604Z,71.46
2023-04-09T04:38:42.770Z,71.56
2023-04-09T04:41:13.076Z,71.14
2023-04-09T04:43:41.689Z,70.74
2023-04-09T04:46:10.689Z,70.76
2023-04-09T04:48:39.421Z,71.32
2023-04-09T04:51:08.913Z,71.09
2023-04-09T04:53:37.584Z,70.88
2023-04-09T04:56:07.442Z,70.88
2023-04-09T04:58:36.310Z,71.14
2023-04-09T05:01:05.226Z,71.70
2023-04-09T05:03:34.257Z,71.44
2023-04-09T05:06:03.359Z,71.70
2023-04-09T05:08:32.393Z,71.80
2023-04-09T05:11:01.754Z,71.86
2023-04-09T05:13:30.675Z,72.16
2023-04-09T05:15:59.425Z,71.89
2023-04-09T05:18:28.379Z,71.85
2023-04-09T05:20:57.107Z,72.43
2023-04-09T05:23:27.048Z,72.06
2023-04-09T05:25:55.668Z,71.43
2023-04-09T05:28:24.326Z,71.48
2023-04-09T05:30:53.132Z,71.20
2023-04-09T05:33:22.232Z,71.27
2023-04-09T05:35:51.080Z,70.92
2023-04-09T05:38:20.268Z,70.75
2023-04-09T05:40:49.450Z,71.27
2023-04-09T05:43:18.759Z,71.39
2023-04-09T05:45:48.068Z,71.61
2023-04-09T05:48:18.060Z,71.46
2023-04-09T05:50:55.151Z,71.31
2023-04-09T05:53:24.778Z,71.50
2023-04-09T05:55:53.657Z,71.06
2023-04-09T05:58:22.537Z,71.07
2023-04-09T06:00:52.274Z,71.00
2023-04-09T06:03:21.290Z,70.49
2023-04-09T06:05:50.437Z,70.20
2023-04-09T06:08:19.537Z,70.18
2023-04-09T06:10:48.723Z,70.42
2023-04-09T06:13:17.931Z,70.69
2023-04-09T06:15:46.737Z,71.10
2023-04-09T06:18:15.414Z,70.69
2023-04-09T06:20:44.285Z,70.71
2023-04-09T06:23:13.033Z,70.77
2023-04-09T06:25:41.889Z,70.28
2023-04-09T06:28:11.219Z,70.25
2023-04-09T06:30:40.180Z,69.92
2023-04-09T06:33:08.931Z,69.86
2023-04-09T06:35:37.933Z,69.62
2023-04-09T06:38:07.380Z,69.66
2023-04-09T06:40:36.635Z,70.33
2023-04-09T06:43:05.508Z,70.68
2023-04-09T06:45:34.991Z,70.74
2023-04-09T06:48:04.722Z,70.95
2023-04-09T06:50:33.935Z,71.20
2023-04-09T06:53:02.799Z,71.27
2023-04-09T06:55:31.881Z,70.89
2023-04-09T06:58:13.364Z,69.74
2023-04-09T07:00:45.138Z,68.99
2023-04-09T07:03:19.167Z,68.77
2023-04-09T07:05:56.702Z,68.95
2023-04-09T07:08:30.966Z,68.57
2023-04-09T07:11:00.752Z,66.95
2023-04-09T07:13:29.667Z,66.44
2023-04-09T07:15:58.746Z,66.74
2023-04-09T07:18:28.124Z,66.75
2023-04-09T07:20:56.907Z,66.84
2023-04-09T07:23:25.847Z,66.82
2023-04-09T07:25:55.548Z,66.81
2023-04-09T07:28:27.317Z,67.01
2023-04-09T07:31:03.599Z,67.08
2023-04-09T07:33:44.090Z,67.02
2023-04-09T07:36:13.591Z,66.51
2023-04-09T07:38:44.328Z,66.27
2023-04-09T07:41:13.339Z,66.18
2023-04-09T07:43:42.203Z,65.99
2023-04-09T07:46:11.515Z,65.92
2023-04-09T07:48:40.696Z,66.00
2023-04-09T07:51:11.650Z,65.48
2023-04-09T07:53:42.462Z,65.51
2023-04-09T07:56:12.012Z,64.94
2023-04-09T07:58:58.858Z,64.43
2023-04-09T08:01:31.066Z,64.01
2023-04-09T08:04:00.117Z,64.24
2023-04-09T08:06:29.211Z,64.02
2023-04-09T08:09:00.945Z,63.92
2023-04-09T08:11:29.805Z,63.44
2023-04-09T08:14:03.571Z,62.87
2023-04-09T08:16:42.694Z,61.98
2023-04-09T08:19:13.887Z,61.73
2023-04-09T08:21:49.263Z,61.62
2023-04-09T08:24:21.246Z,61.62
2023-04-09T08:26:50.073Z,61.53
2023-04-09T08:29:18.860Z,60.98
2023-04-09T08:31:48.250Z,60.84
2023-04-09T08:34:20.659Z,60.64
2023-04-09T08:36:49.518Z,60.55
2023-04-09T08:39:19.755Z,60.70
2023-04-09T08:41:48.833Z,60.07
2023-04-09T08:44:19.250Z,59.74
2023-04-09T08:46:48.010Z,59.04
2023-04-09T08:49:16.810Z,58.63
2023-04-09T08:51:48.471Z,58.77
2023-04-09T08:54:19.659Z,58.65
2023-04-09T08:56:48.850Z,58.26
2023-04-09T08:59:18.832Z,58.15
2023-04-09T09:01:53.809Z,58.40
2023-04-09T09:04:22.630Z,58.26
2023-04-09T09:06:54.723Z,58.65
2023-04-09T09:09:26.511Z,58.80
2023-04-09T09:11:55.605Z,58.64
2023-04-09T09:14:24.409Z,58.21
2023-04-09T09:17:07.783Z,58.26
2023-04-09T09:19:39.068Z,58.17
2023-04-09T09:22:10.607Z,57.92
2023-04-09T09:24:49.830Z,57.69
2023-04-09T09:27:40.269Z,57.74
2023-04-09T09:30:21.375Z,57.58
2023-04-09T09:32:53.433Z,57.62
2023-04-09T09:35:23.039Z,58.03
2023-04-09T09:38:03.824Z,57.95
2023-04-09T09:40:32.918Z,57.18
2023-04-09T09:43:02.294Z,56.81
2023-04-09T09:45:32.520Z,56.83
2023-04-09T09:48:01.986Z,56.75
2023-04-09T09:50:32.110Z,55.81
2023-04-09T09:53:05.184Z,55.98
2023-04-09T09:55:36.999Z,56.22
2023-04-09T09:58:16.692Z,56.41
2023-04-09T10:00:48.563Z,56.37
2023-04-09T10:03:23.717Z,56.79
2023-04-09T10:05:53.568Z,56.92
2023-04-09T10:08:23.686Z,56.79
2023-04-09T10:10:53.879Z,56.68
2023-04-09T10:13:29.394Z,56.43
2023-04-09T10:15:59.786Z,55.86
2023-04-09T10:18:28.941Z,56.18
2023-04-09T10:21:04.276Z,56.30
2023-04-09T10:23:38.135Z,56.24
2023-04-09T10:26:07.172Z,56.09
2023-04-09T10:28:38.580Z,56.37
2023-04-09T10:31:09.050Z,56.46
2023-04-09T10:33:39.606Z,56.34
2023-04-09T10:36:13.007Z,55.87
2023-04-09T10:38:56.783Z,55.88
2023-04-09T10:41:43.190Z,56.04
2023-04-09T10:44:34.367Z,55.83
2023-04-09T10:47:09.414Z,55.71
2023-04-09T10:49:50.256Z,56.23
2023-04-09T10:52:36.447Z,55.82
2023-04-09T10:55:21.625Z,55.73
2023-04-09T10:58:04.507Z,55.58
2023-04-09T11:00:41.729Z,55.57
2023-04-09T11:03:25.333Z,55.67
2023-04-09T11:06:02.308Z,55.88
2023-04-09T11:08:37.339Z,55.74
2023-04-09T11:11:06.962Z,55.43
2023-04-09T11:13:42.972Z,55.75
2023-04-09T11:16:24.807Z,55.96
2023-04-09T11:18:58.565Z,56.05
2023-04-09T11:21:39.099Z,55.92
2023-04-09T11:24:08.519Z,55.69
2023-04-09T11:26:41.205Z,55.90
2023-04-09T11:29:10.233Z,55.95
2023-04-09T11:31:39.602Z,55.63
2023-04-09T11:34:12.120Z,55.75
2023-04-09T11:36:41.192Z,55.70
2023-04-09T11:39:10.237Z,55.03
2023-04-09T11:41:43.015Z,55.03
2023-04-09T11:44:12.168Z,55.20
2023-04-09T11:46:56.815Z,55.02
2023-04-09T11:49:55.640Z,54.97
2023-04-09T11:52:39.192Z,54.98
2023-04-09T11:55:30.834Z,54.88
2023-04-09T11:58:07.831Z,54.99
2023-04-09T12:00:50.003Z,55.06
2023-04-09T12:04:03.327Z,54.71
2023-04-09T12:07:04.981Z,54.72
2023-04-09T12:10:01.565Z,54.44
2023-04-09T12:12:38.262Z,54.31
2023-04-09T12:15:32.797Z,54.23
2023-04-09T12:18:17.898Z,54.18
2023-04-09T12:21:07.932Z,54.05
2023-04-09T12:26:44.509Z,54.46
2023-04-09T12:29:48.739Z,54.32
2023-04-09T12:35:52.907Z,54.22
2023-04-09T12:38:36.067Z,54.20
2023-04-09T12:41:16.571Z,53.97
2023-04-09T12:44:01.330Z,54.44
2023-04-09T12:47:33.383Z,54.49
2023-04-09T12:50:32.612Z,54.03
2023-04-09T12:53:13.916Z,53.71
2023-04-09T12:56:00.268Z,53.31
2023-04-09T12:58:42.562Z,53.36
2023-04-09T13:01:21.988Z,53.23
2023-04-09T13:04:10.423Z,53.17
2023-04-09T13:07:17.873Z,53.06
2023-04-09T13:10:41.360Z,53.28
2023-04-09T13:16:30.986Z,52.87
2023-04-09T13:19:19.550Z,52.82
2023-04-09T13:22:14.765Z,53.19
2023-04-09T13:25:05.393Z,53.41
2023-04-09T13:36:22.985Z,52.74
2023-04-09T13:39:45.818Z,53.01
2023-04-09T13:43:04.609Z,52.84
2023-04-09T13:50:36.198Z,52.98
2023-04-09T13:57:50.578Z,52.24
2023-04-09T14:00:25.678Z,52.40
2023-04-09T14:03:06.850Z,52.51
2023-04-09T14:06:40.074Z,52.51
2023-04-09T14:13:10.451Z,52.02
2023-04-09T14:15:41.892Z,51.80
2023-04-09T14:18:27.410Z,52.16
2023-04-09T14:21:25.494Z,52.10
2023-04-09T14:23:56.483Z,52.09
2023-04-09T14:26:31.704Z,51.95
2023-04-09T14:29:07.009Z,52.24
2023-04-09T14:31:44.428Z,51.98
2023-04-09T14:34:13.854Z,51.77
2023-04-09T14:36:50.194Z,51.98
2023-04-09T14:39:51.704Z,51.72
2023-04-09T14:42:36.412Z,51.49
2023-04-09T14:45:11.945Z,51.20
2023-04-09T14:47:50.402Z,51.06
2023-04-09T14:50:30.158Z,50.75
2023-04-09T14:53:04.289Z,50.38
2023-04-09T14:56:09.976Z,50.13
2023-04-09T14:58:45.548Z,49.85
2023-04-09T15:01:33.376Z,49.94
2023-04-09T15:07:25.356Z,49.94
2023-04-09T15:09:59.709Z,49.90
2023-04-09T15:12:36.246Z,49.71
2023-04-09T15:15:28.000Z,49.59
2023-04-09T15:18:25.170Z,49.54
2023-04-09T15:21:03.778Z,49.51
2023-04-09T15:23:57.823Z,49.44
2023-04-09T15:26:51.721Z,49.27
2023-04-09T15:29:51.047Z,49.81
2023-04-09T15:32:38.049Z,50.33
2023-04-09T15:35:29.395Z,50.73
2023-04-09T15:38:34.598Z,51.26
2023-04-09T15:41:18.385Z,51.33
2023-04-09T15:44:01.271Z,51.93
2023-04-09T15:47:12.620Z,52.06
2023-04-09T15:50:09.965Z,52.19
2023-04-09T15:52:53.880Z,52.04
2023-04-09T15:55:48.966Z,52.32
2023-04-09T15:58:29.495Z,52.55
2023-04-09T16:02:39.578Z,52.90
2023-04-09T16:04:43.186Z,52.79
2023-04-09T16:07:52.437Z,52.89
2023-04-09T16:11:02.970Z,53.03
2023-04-09T16:14:02.866Z,53.01
2023-04-09T16:17:06.082Z,53.07
2023-04-09T16:19:51.498Z,53.18
2023-04-09T16:22:36.601Z,53.13
2023-04-09T16:25:46.559Z,53.02
2023-04-09T16:29:01.006Z,53.34
2023-04-09T16:31:44.522Z,53.29
2023-04-09T16:34:32.581Z,53.09
2023-04-09T16:37:12.913Z,53.19
2023-04-09T16:39:49.188Z,53.31
2023-04-09T16:42:41.035Z,53.26
2023-04-09T16:45:28.732Z,53.25
2023-04-09T16:48:25.564Z,53.09
2023-04-09T16:51:24.757Z,53.21
2023-04-09T16:54:19.611Z,53.13
2023-04-09T16:57:25.407Z,53.39
2023-04-09T17:00:12.922Z,53.46
2023-04-09T17:02:46.160Z,53.50
2023-04-09T17:06:11.174Z,53.58
2023-04-09T17:09:06.906Z,53.65
2023-04-09T17:12:04.108Z,53.55
2023-04-09T17:18:25.535Z,53.96
2023-04-09T17:21:16.489Z,53.74
2023-04-09T17:23:46.668Z,53.88
2023-04-09T17:26:56.479Z,53.97
2023-04-09T17:29:37.782Z,54.24
2023-04-09T17:32:21.094Z,54.01
2023-04-09T17:35:08.625Z,54.30
2023-04-09T17:37:38.432Z,54.46
2023-04-09T17:40:16.590Z,54.62
2023-04-09T17:42:47.366Z,54.66
2023-04-09T17:45:32.360Z,54.88
2023-04-09T17:48:00.413Z,55.23
2023-04-09T17:50:38.579Z,55.25
2023-04-09T17:53:32.204Z,55.33
2023-04-09T17:56:22.484Z,55.52
2023-04-09T17:58:54.597Z,55.31
2023-04-09T18:02:04.598Z,55.44
2023-04-09T18:12:00.272Z,55.50
2023-04-09T18:14:41.745Z,55.34
2023-04-09T18:21:19.374Z,55.30
2023-04-09T18:24:21.054Z,55.30
2023-04-09T18:26:58.165Z,55.31
2023-04-09T18:30:03.451Z,55.36
2023-04-09T18:32:58.052Z,55.37
2023-04-09T18:36:18.526Z,55.69
2023-04-09T18:39:56.435Z,55.45
2023-04-09T18:43:19.489Z,55.49
2023-04-09T18:46:07.692Z,55.36
2023-04-09T18:49:29.711Z,55.38
2023-04-09T18:52:03.985Z,55.43
2023-04-09T18:54:51.152Z,55.66
2023-04-09T18:57:20.895Z,56.07
2023-04-09T18:59:53.600Z,56.50
2023-04-09T19:02:25.824Z,56.96
2023-04-09T19:04:56.657Z,57.39
2023-04-09T19:07:27.492Z,57.43
2023-04-09T19:10:00.649Z,57.35
2023-04-09T19:12:30.290Z,57.15
2023-04-09T19:15:06.051Z,57.48
2023-04-09T19:17:47.685Z,57.56
2023-04-09T19:20:40.341Z,57.74
2023-04-09T19:23:16.197Z,57.81
2023-04-09T19:26:09.797Z,57.34
2023-04-09T19:28:46.913Z,57.61
2023-04-09T19:31:29.526Z,57.33
2023-04-09T19:34:08.676Z,57.69
2023-04-09T19:37:14.138Z,57.72
2023-04-09T19:40:43.851Z,58.16
2023-04-09T19:43:15.199Z,57.98
2023-04-09T19:45:46.921Z,58.02
2023-04-09T19:48:17.549Z,58.09
2023-04-09T19:50:51.094Z,58.20
2023-04-09T19:53:44.184Z,58.63
2023-04-09T19:56:16.184Z,58.98
2023-04-09T19:59:00.518Z,58.98
2023-04-09T20:01:38.412Z,58.99
2023-04-09T20:15:57.757Z,59.41
2023-04-09T20:20:15.767Z,59.14
2023-04-09T20:23:09.466Z,59.30
2023-04-09T20:30:07.252Z,59.44
2023-04-09T20:32:54.161Z,59.52
2023-04-09T20:36:37.560Z,59.85
2023-04-09T20:40:20.322Z,60.10
2023-04-09T21:02:10.436Z,60.01
2023-04-09T21:05:01.615Z,60.73
2023-04-09T21:07:58.633Z,60.64
2023-04-09T21:10:37.639Z,60.77
2023-04-09T21:13:29.211Z,60.58
2023-04-09T21:16:35.457Z,61.00
2023-04-09T21:19:29.687Z,61.24
2023-04-09T21:22:11.303Z,61.30
2023-04-09T21:25:01.965Z,61.23
2023-04-09T21:28:00.643Z,61.85
2023-04-09T21:31:00.230Z,61.74
2023-04-09T21:34:07.272Z,62.50
2023-04-09T21:37:05.770Z,62.07
2023-04-09T21:40:23.047Z,62.67
2023-04-09T21:43:13.999Z,62.18
2023-04-09T21:46:37.671Z,62.72
2023-04-09T21:49:01.890Z,62.38
2023-04-09T21:52:01.829Z,62.21
2023-04-09T21:58:00.889Z,62.43
2023-04-09T22:01:02.262Z,62.16
2023-04-09T22:04:09.555Z,62.00
2023-04-09T22:10:21.119Z,62.31
2023-04-09T22:13:16.288Z,62.60
2023-04-09T22:16:00.251Z,62.71
2023-04-09T22:18:48.238Z,62.92
2023-04-09T22:21:34.140Z,62.67
2023-04-09T22:24:09.124Z,62.99
2023-04-09T22:26:57.136Z,63.02
2023-04-09T22:29:38.222Z,63.22
2023-04-09T22:32:53.722Z,63.43
2023-04-09T22:35:38.172Z,63.13
2023-04-09T22:38:15.796Z,63.21
2023-04-09T22:40:52.115Z,63.37
2023-04-09T22:43:40.665Z,63.41
2023-04-09T22:46:16.155Z,63.66
2023-04-09T22:48:47.348Z,63.94
2023-04-09T22:51:40.164Z,64.59
2023-04-09T22:54:16.086Z,64.91
2023-04-09T22:56:48.301Z,64.91
2023-04-09T22:59:21.335Z,65.07
2023-04-09T23:01:57.070Z,65.11
2023-04-09T23:04:45.805Z,65.19
2023-04-09T23:07:20.388Z,65.31
2023-04-09T23:13:52.981Z,65.16
2023-04-09T23:16:37.376Z,65.18
2023-04-09T23:19:17.068Z,65.28
2023-04-09T23:21:49.700Z,65.61
2023-04-09T23:24:28.901Z,66.27
2023-04-09T23:27:16.041Z,66.80
2023-04-09T23:29:51.132Z,66.76
2023-04-09T23:32:36.458Z,66.67
2023-04-09T23:35:07.238Z,66.79
2023-04-09T23:37:42.974Z,66.89
2023-04-09T23:40:32.659Z,67.15
2023-04-09T23:43:05.584Z,66.94
2023-04-09T23:45:50.293Z,67.38
2023-04-09T23:48:23.057Z,67.29
2023-04-09T23:50:56.810Z,67.52
2023-04-09T23:53:31.455Z,67.89
2023-04-09T23:56:01.953Z,67.88
2023-04-09T23:58:37.002Z,67.66
